McWhorter, West Virginia
Current Conditions -  °F | °C
As of 9:55 AM on Thursday 23 Oct 2014 (Local Time) from KW22 Reporting Station
Overcast Overcast  
Wind Chill: 45°   Ceiling: 700
Heat Index: 45°   Visibility: 10mi
Dew Point: 43°   Wind: 0mph
Humidity: 93%   Direction: NA
Pressure: 30.17"   Gusts: NA
Location:  39.1567°N, 80.3538°W
Report Text: KW22 231355Z AUTO 00000KT 10SM OVC007 07/06 A3017 RMK AO2
Loading
Personal Weather Stations






























Interactive Weather Map
Tropical Storm Tracking
New forecast layout! Learn more

10-Day Weather Forecast

Advertisements
Track Severe Weather on mobile